sensor_id;sensor_type;location;lat;lon;timestamp;P1;durP1;ratioP1;P2;durP2;ratioP2
13238;SDS011;6686;51.292;4.166;2022-07-18T00:00:04;4.50;;;3.17;;
13238;SDS011;6686;51.292;4.166;2022-07-18T00:02:50;5.95;;;3.58;;
13238;SDS011;6686;51.292;4.166;2022-07-18T00:05:36;5.00;;;2.90;;
13238;SDS011;6686;51.292;4.166;2022-07-18T00:08:22;4.30;;;3.10;;
13238;SDS011;6686;51.292;4.166;2022-07-18T00:11:08;4.77;;;3.03;;
13238;SDS011;6686;51.292;4.166;2022-07-18T00:13:54;4.33;;;2.90;;
13238;SDS011;6686;51.292;4.166;2022-07-18T00:16:40;3.70;;;2.70;;
13238;SDS011;6686;51.292;4.166;2022-07-18T00:19:26;5.57;;;3.17;;
13238;SDS011;6686;51.292;4.166;2022-07-18T00:22:12;3.70;;;2.87;;
13238;SDS011;6686;51.292;4.166;2022-07-18T00:24:58;4.20;;;2.93;;
13238;SDS011;6686;51.292;4.166;2022-07-18T00:27:44;4.40;;;3.10;;
13238;SDS011;6686;51.292;4.166;2022-07-18T00:30:29;4.70;;;3.00;;
13238;SDS011;6686;51.292;4.166;2022-07-18T00:33:15;5.67;;;2.87;;
13238;SDS011;6686;51.292;4.166;2022-07-18T00:36:01;4.13;;;3.07;;
13238;SDS011;6686;51.292;4.166;2022-07-18T00:38:47;4.63;;;2.93;;
13238;SDS011;6686;51.292;4.166;2022-07-18T00:41:33;4.53;;;3.30;;
13238;SDS011;6686;51.292;4.166;2022-07-18T00:44:19;6.63;;;3.20;;
13238;SDS011;6686;51.292;4.166;2022-07-18T00:47:05;4.47;;;3.07;;
13238;SDS011;6686;51.292;4.166;2022-07-18T00:49:50;3.97;;;3.13;;
13238;SDS011;6686;51.292;4.166;2022-07-18T00:52:37;4.43;;;3.30;;
13238;SDS011;6686;51.292;4.166;2022-07-18T00:55:23;4.97;;;3.30;;
13238;SDS011;6686;51.292;4.166;2022-07-18T00:58:09;3.70;;;3.03;;
13238;SDS011;6686;51.292;4.166;2022-07-18T01:00:55;4.60;;;3.23;;
13238;SDS011;6686;51.292;4.166;2022-07-18T01:03:59;5.50;;;3.07;;
13238;SDS011;6686;51.292;4.166;2022-07-18T01:06:45;4.63;;;3.00;;
13238;SDS011;6686;51.292;4.166;2022-07-18T01:09:31;3.73;;;3.40;;
13238;SDS011;6686;51.292;4.166;2022-07-18T01:12:17;5.30;;;3.33;;
13238;SDS011;6686;51.292;4.166;2022-07-18T01:15:04;3.20;;;2.70;;
13238;SDS011;6686;51.292;4.166;2022-07-18T01:17:49;5.40;;;2.80;;
13238;SDS011;6686;51.292;4.166;2022-07-18T01:20:35;4.70;;;3.10;;
13238;SDS011;6686;51.292;4.166;2022-07-18T01:23:21;5.83;;;2.93;;
13238;SDS011;6686;51.292;4.166;2022-07-18T01:26:07;4.83;;;3.23;;
13238;SDS011;6686;51.292;4.166;2022-07-18T01:28:53;4.00;;;2.90;;
13238;SDS011;6686;51.292;4.166;2022-07-18T01:31:39;3.87;;;2.67;;
13238;SDS011;6686;51.292;4.166;2022-07-18T01:34:25;5.03;;;2.70;;
13238;SDS011;6686;51.292;4.166;2022-07-18T01:37:11;6.57;;;3.10;;
13238;SDS011;6686;51.292;4.166;2022-07-18T01:39:57;4.60;;;3.00;;
13238;SDS011;6686;51.292;4.166;2022-07-18T01:42:43;3.63;;;2.73;;
13238;SDS011;6686;51.292;4.166;2022-07-18T01:45:28;4.37;;;3.13;;
13238;SDS011;6686;51.292;4.166;2022-07-18T01:48:14;4.20;;;3.30;;
13238;SDS011;6686;51.292;4.166;2022-07-18T01:51:01;6.53;;;3.63;;
13238;SDS011;6686;51.292;4.166;2022-07-18T01:53:53;9.17;;;3.53;;
13238;SDS011;6686;51.292;4.166;2022-07-18T01:56:32;6.77;;;3.03;;
13238;SDS011;6686;51.292;4.166;2022-07-18T01:59:18;4.10;;;3.53;;
13238;SDS011;6686;51.292;4.166;2022-07-18T02:02:04;3.70;;;2.73;;
13238;SDS011;6686;51.292;4.166;2022-07-18T02:04:50;3.73;;;2.70;;
13238;SDS011;6686;51.292;4.166;2022-07-18T02:07:45;3.93;;;3.17;;
13238;SDS011;6686;51.292;4.166;2022-07-18T02:10:31;4.20;;;3.30;;
13238;SDS011;6686;51.292;4.166;2022-07-18T02:13:17;4.80;;;2.93;;
13238;SDS011;6686;51.292;4.166;2022-07-18T02:16:02;4.70;;;2.93;;
13238;SDS011;6686;51.292;4.166;2022-07-18T02:18:49;3.13;;;2.70;;
13238;SDS011;6686;51.292;4.166;2022-07-18T02:24:17;4.90;;;3.40;;
13238;SDS011;6686;51.292;4.166;2022-07-18T02:27:03;3.97;;;3.07;;
13238;SDS011;6686;51.292;4.166;2022-07-18T02:29:49;4.60;;;3.10;;
13238;SDS011;6686;51.292;4.166;2022-07-18T02:32:35;5.10;;;2.80;;
13238;SDS011;6686;51.292;4.166;2022-07-18T02:35:20;6.10;;;3.60;;
13238;SDS011;6686;51.292;4.166;2022-07-18T02:38:06;3.70;;;3.07;;
13238;SDS011;6686;51.292;4.166;2022-07-18T02:40:54;6.60;;;3.40;;
13238;SDS011;6686;51.292;4.166;2022-07-18T02:43:40;3.77;;;3.03;;
13238;SDS011;6686;51.292;4.166;2022-07-18T02:46:29;3.60;;;2.70;;
13238;SDS011;6686;51.292;4.166;2022-07-18T02:49:15;4.60;;;3.20;;
13238;SDS011;6686;51.292;4.166;2022-07-18T02:52:13;4.33;;;3.10;;
13238;SDS011;6686;51.292;4.166;2022-07-18T02:54:59;4.07;;;3.10;;
13238;SDS011;6686;51.292;4.166;2022-07-18T02:57:44;5.83;;;2.97;;
13238;SDS011;6686;51.292;4.166;2022-07-18T03:00:30;5.00;;;3.20;;
13238;SDS011;6686;51.292;4.166;2022-07-18T03:03:17;3.50;;;3.00;;
13238;SDS011;6686;51.292;4.166;2022-07-18T03:06:02;5.50;;;2.97;;
13238;SDS011;6686;51.292;4.166;2022-07-18T03:08:50;6.13;;;2.90;;
13238;SDS011;6686;51.292;4.166;2022-07-18T03:11:36;4.77;;;3.17;;
13238;SDS011;6686;51.292;4.166;2022-07-18T03:14:21;4.55;;;3.20;;
13238;SDS011;6686;51.292;4.166;2022-07-18T03:17:09;4.83;;;3.30;;
13238;SDS011;6686;51.292;4.166;2022-07-18T03:19:55;3.17;;;2.80;;
13238;SDS011;6686;51.292;4.166;2022-07-18T03:22:41;5.50;;;3.37;;
13238;SDS011;6686;51.292;4.166;2022-07-18T03:25:34;4.80;;;2.87;;
13238;SDS011;6686;51.292;4.166;2022-07-18T03:28:27;3.43;;;3.00;;
13238;SDS011;6686;51.292;4.166;2022-07-18T03:31:09;4.50;;;3.03;;
13238;SDS011;6686;51.292;4.166;2022-07-18T03:33:55;5.87;;;3.40;;
13238;SDS011;6686;51.292;4.166;2022-07-18T03:36:41;5.07;;;3.33;;
13238;SDS011;6686;51.292;4.166;2022-07-18T03:39:28;7.13;;;3.50;;
13238;SDS011;6686;51.292;4.166;2022-07-18T03:42:14;5.25;;;3.50;;
13238;SDS011;6686;51.292;4.166;2022-07-18T03:45:00;6.03;;;3.90;;
13238;SDS011;6686;51.292;4.166;2022-07-18T03:47:46;5.45;;;3.83;;
13238;SDS011;6686;51.292;4.166;2022-07-18T03:50:31;8.13;;;3.70;;
13238;SDS011;6686;51.292;4.166;2022-07-18T03:53:17;5.40;;;3.30;;
13238;SDS011;6686;51.292;4.166;2022-07-18T03:56:03;4.50;;;3.30;;
13238;SDS011;6686;51.292;4.166;2022-07-18T03:58:50;4.67;;;3.33;;
13238;SDS011;6686;51.292;4.166;2022-07-18T04:01:36;5.17;;;3.40;;
13238;SDS011;6686;51.292;4.166;2022-07-18T04:04:22;5.90;;;2.93;;
13238;SDS011;6686;51.292;4.166;2022-07-18T04:07:08;4.83;;;3.50;;
13238;SDS011;6686;51.292;4.166;2022-07-18T04:09:56;6.03;;;3.00;;
13238;SDS011;6686;51.292;4.166;2022-07-18T04:12:49;6.50;;;3.20;;
13238;SDS011;6686;51.292;4.166;2022-07-18T04:15:34;6.23;;;3.40;;
13238;SDS011;6686;51.292;4.166;2022-07-18T04:18:19;9.70;;;3.27;;
13238;SDS011;6686;51.292;4.166;2022-07-18T04:21:05;5.83;;;2.83;;
13238;SDS011;6686;51.292;4.166;2022-07-18T04:23:51;5.10;;;3.33;;
13238;SDS011;6686;51.292;4.166;2022-07-18T04:26:37;5.03;;;3.28;;
13238;SDS011;6686;51.292;4.166;2022-07-18T04:29:23;5.23;;;2.80;;
13238;SDS011;6686;51.292;4.166;2022-07-18T04:32:08;4.20;;;2.80;;
13238;SDS011;6686;51.292;4.166;2022-07-18T04:34:54;7.93;;;3.07;;
13238;SDS011;6686;51.292;4.166;2022-07-18T04:37:46;4.90;;;3.80;;
13238;SDS011;6686;51.292;4.166;2022-07-18T04:40:34;5.27;;;3.47;;
13238;SDS011;6686;51.292;4.166;2022-07-18T04:43:23;5.20;;;3.00;;
13238;SDS011;6686;51.292;4.166;2022-07-18T04:46:09;6.37;;;2.80;;
13238;SDS011;6686;51.292;4.166;2022-07-18T04:48:55;6.07;;;3.03;;
13238;SDS011;6686;51.292;4.166;2022-07-18T04:51:41;4.37;;;3.00;;
13238;SDS011;6686;51.292;4.166;2022-07-18T04:54:28;4.17;;;3.23;;
13238;SDS011;6686;51.292;4.166;2022-07-18T04:57:15;4.83;;;3.30;;
13238;SDS011;6686;51.292;4.166;2022-07-18T05:00:03;7.18;;;3.67;;
13238;SDS011;6686;51.292;4.166;2022-07-18T05:02:50;5.60;;;3.13;;
13238;SDS011;6686;51.292;4.166;2022-07-18T05:05:36;5.20;;;3.03;;
13238;SDS011;6686;51.292;4.166;2022-07-18T05:08:23;4.90;;;3.00;;
13238;SDS011;6686;51.292;4.166;2022-07-18T05:11:08;8.40;;;3.40;;
13238;SDS011;6686;51.292;4.166;2022-07-18T05:13:55;5.72;;;3.28;;
13238;SDS011;6686;51.292;4.166;2022-07-18T05:16:41;9.07;;;3.70;;
13238;SDS011;6686;51.292;4.166;2022-07-18T05:19:27;6.33;;;3.10;;
13238;SDS011;6686;51.292;4.166;2022-07-18T05:22:12;4.97;;;3.20;;
13238;SDS011;6686;51.292;4.166;2022-07-18T05:25:00;7.23;;;3.20;;
13238;SDS011;6686;51.292;4.166;2022-07-18T05:27:45;4.07;;;3.07;;
13238;SDS011;6686;51.292;4.166;2022-07-18T05:30:31;5.80;;;2.80;;
13238;SDS011;6686;51.292;4.166;2022-07-18T05:33:17;5.63;;;3.63;;
13238;SDS011;6686;51.292;4.166;2022-07-18T05:36:04;6.23;;;3.40;;
13238;SDS011;6686;51.292;4.166;2022-07-18T05:38:51;5.13;;;3.30;;
13238;SDS011;6686;51.292;4.166;2022-07-18T05:41:37;5.70;;;3.20;;
13238;SDS011;6686;51.292;4.166;2022-07-18T05:44:23;6.50;;;3.33;;
13238;SDS011;6686;51.292;4.166;2022-07-18T05:47:09;10.13;;;3.70;;
13238;SDS011;6686;51.292;4.166;2022-07-18T05:49:54;8.68;;;3.90;;
13238;SDS011;6686;51.292;4.166;2022-07-18T05:52:40;4.97;;;2.93;;
13238;SDS011;6686;51.292;4.166;2022-07-18T05:55:26;6.30;;;2.80;;
13238;SDS011;6686;51.292;4.166;2022-07-18T05:58:12;6.82;;;3.12;;
13238;SDS011;6686;51.292;4.166;2022-07-18T06:00:58;8.10;;;3.08;;
13238;SDS011;6686;51.292;4.166;2022-07-18T06:03:44;4.62;;;3.17;;
13238;SDS011;6686;51.292;4.166;2022-07-18T06:06:30;7.40;;;3.03;;
13238;SDS011;6686;51.292;4.166;2022-07-18T06:09:16;7.40;;;3.28;;
13238;SDS011;6686;51.292;4.166;2022-07-18T06:12:02;7.57;;;3.05;;
13238;SDS011;6686;51.292;4.166;2022-07-18T06:14:51;7.53;;;3.30;;
13238;SDS011;6686;51.292;4.166;2022-07-18T06:17:42;7.55;;;2.97;;
13238;SDS011;6686;51.292;4.166;2022-07-18T06:20:28;4.37;;;2.97;;
13238;SDS011;6686;51.292;4.166;2022-07-18T06:23:21;4.85;;;3.15;;
13238;SDS011;6686;51.292;4.166;2022-07-18T06:26:11;7.62;;;3.10;;
13238;SDS011;6686;51.292;4.166;2022-07-18T06:28:57;4.68;;;2.85;;
13238;SDS011;6686;51.292;4.166;2022-07-18T06:31:43;5.22;;;2.95;;
13238;SDS011;6686;51.292;4.166;2022-07-18T06:34:30;8.60;;;3.35;;
13238;SDS011;6686;51.292;4.166;2022-07-18T06:37:16;11.65;;;3.45;;
13238;SDS011;6686;51.292;4.166;2022-07-18T06:40:02;10.93;;;3.62;;
13238;SDS011;6686;51.292;4.166;2022-07-18T06:42:48;7.43;;;3.12;;
13238;SDS011;6686;51.292;4.166;2022-07-18T06:45:35;7.45;;;2.85;;
13238;SDS011;6686;51.292;4.166;2022-07-18T06:48:20;7.70;;;3.05;;
13238;SDS011;6686;51.292;4.166;2022-07-18T06:51:07;8.60;;;3.37;;
13238;SDS011;6686;51.292;4.166;2022-07-18T06:53:58;5.00;;;2.80;;
13238;SDS011;6686;51.292;4.166;2022-07-18T06:56:44;6.18;;;3.05;;
13238;SDS011;6686;51.292;4.166;2022-07-18T06:59:30;8.20;;;3.70;;
13238;SDS011;6686;51.292;4.166;2022-07-18T07:02:16;6.57;;;3.12;;
13238;SDS011;6686;51.292;4.166;2022-07-18T07:05:02;6.20;;;4.00;;
13238;SDS011;6686;51.292;4.166;2022-07-18T07:07:48;6.90;;;3.90;;
13238;SDS011;6686;51.292;4.166;2022-07-18T07:10:35;6.85;;;3.70;;
13238;SDS011;6686;51.292;4.166;2022-07-18T07:13:22;7.12;;;3.35;;
13238;SDS011;6686;51.292;4.166;2022-07-18T07:16:09;7.78;;;3.80;;
13238;SDS011;6686;51.292;4.166;2022-07-18T07:18:55;7.45;;;4.00;;
13238;SDS011;6686;51.292;4.166;2022-07-18T07:21:41;6.00;;;3.75;;
13238;SDS011;6686;51.292;4.166;2022-07-18T07:24:28;6.35;;;4.03;;
13238;SDS011;6686;51.292;4.166;2022-07-18T07:27:14;8.07;;;4.87;;
13238;SDS011;6686;51.292;4.166;2022-07-18T07:30:00;7.70;;;5.62;;
13238;SDS011;6686;51.292;4.166;2022-07-18T07:32:46;9.02;;;3.85;;
13238;SDS011;6686;51.292;4.166;2022-07-18T07:35:32;6.03;;;3.53;;
13238;SDS011;6686;51.292;4.166;2022-07-18T07:38:18;7.43;;;4.05;;
13238;SDS011;6686;51.292;4.166;2022-07-18T07:41:06;8.25;;;4.03;;
13238;SDS011;6686;51.292;4.166;2022-07-18T07:43:51;6.50;;;4.12;;
13238;SDS011;6686;51.292;4.166;2022-07-18T07:46:37;5.90;;;3.42;;
13238;SDS011;6686;51.292;4.166;2022-07-18T07:49:23;6.55;;;3.53;;
13238;SDS011;6686;51.292;4.166;2022-07-18T07:52:09;10.10;;;3.85;;
13238;SDS011;6686;51.292;4.166;2022-07-18T07:54:55;7.93;;;3.62;;
13238;SDS011;6686;51.292;4.166;2022-07-18T07:57:40;5.87;;;3.45;;
13238;SDS011;6686;51.292;4.166;2022-07-18T08:00:26;9.10;;;4.05;;
13238;SDS011;6686;51.292;4.166;2022-07-18T08:03:12;7.53;;;3.90;;
13238;SDS011;6686;51.292;4.166;2022-07-18T08:05:58;6.45;;;3.60;;
13238;SDS011;6686;51.292;4.166;2022-07-18T08:08:44;7.90;;;4.22;;
13238;SDS011;6686;51.292;4.166;2022-07-18T08:11:31;5.40;;;3.70;;
13238;SDS011;6686;51.292;4.166;2022-07-18T08:14:17;7.72;;;3.83;;
13238;SDS011;6686;51.292;4.166;2022-07-18T08:17:02;8.57;;;3.58;;
13238;SDS011;6686;51.292;4.166;2022-07-18T08:19:48;10.93;;;3.67;;
13238;SDS011;6686;51.292;4.166;2022-07-18T08:22:34;7.72;;;3.85;;
13238;SDS011;6686;51.292;4.166;2022-07-18T08:25:21;7.40;;;4.28;;
13238;SDS011;6686;51.292;4.166;2022-07-18T08:28:07;5.50;;;3.75;;
13238;SDS011;6686;51.292;4.166;2022-07-18T08:30:52;8.50;;;4.45;;
13238;SDS011;6686;51.292;4.166;2022-07-18T08:33:39;10.27;;;4.43;;
13238;SDS011;6686;51.292;4.166;2022-07-18T08:36:25;10.50;;;3.75;;
13238;SDS011;6686;51.292;4.166;2022-07-18T08:39:11;8.32;;;3.67;;
13238;SDS011;6686;51.292;4.166;2022-07-18T08:41:57;10.00;;;4.53;;
13238;SDS011;6686;51.292;4.166;2022-07-18T08:44:43;8.23;;;4.30;;
13238;SDS011;6686;51.292;4.166;2022-07-18T08:47:29;4.53;;;3.80;;
13238;SDS011;6686;51.292;4.166;2022-07-18T08:50:14;5.87;;;4.00;;
13238;SDS011;6686;51.292;4.166;2022-07-18T08:53:00;5.68;;;4.25;;
13238;SDS011;6686;51.292;4.166;2022-07-18T08:55:46;9.27;;;4.37;;
13238;SDS011;6686;51.292;4.166;2022-07-18T08:58:31;11.15;;;4.10;;
13238;SDS011;6686;51.292;4.166;2022-07-18T09:01:17;6.12;;;3.58;;
13238;SDS011;6686;51.292;4.166;2022-07-18T09:04:03;6.32;;;3.30;;
13238;SDS011;6686;51.292;4.166;2022-07-18T09:07:01;5.45;;;3.97;;
13238;SDS011;6686;51.292;4.166;2022-07-18T09:09:51;5.43;;;3.50;;
13238;SDS011;6686;51.292;4.166;2022-07-18T09:12:32;5.28;;;3.97;;
13238;SDS011;6686;51.292;4.166;2022-07-18T09:15:18;10.68;;;3.65;;
13238;SDS011;6686;51.292;4.166;2022-07-18T09:18:04;6.70;;;3.92;;
13238;SDS011;6686;51.292;4.166;2022-07-18T09:23:45;5.72;;;3.60;;
13238;SDS011;6686;51.292;4.166;2022-07-18T09:26:37;7.35;;;3.53;;
13238;SDS011;6686;51.292;4.166;2022-07-18T09:29:24;6.43;;;3.85;;
13238;SDS011;6686;51.292;4.166;2022-07-18T09:32:10;4.95;;;3.37;;
13238;SDS011;6686;51.292;4.166;2022-07-18T09:34:56;5.30;;;4.05;;
13238;SDS011;6686;51.292;4.166;2022-07-18T09:37:51;7.35;;;3.80;;
13238;SDS011;6686;51.292;4.166;2022-07-18T09:40:38;4.37;;;2.87;;
13238;SDS011;6686;51.292;4.166;2022-07-18T09:43:23;6.15;;;3.22;;
13238;SDS011;6686;51.292;4.166;2022-07-18T09:46:09;4.12;;;2.53;;
13238;SDS011;6686;51.292;4.166;2022-07-18T09:49:10;4.18;;;2.62;;
13238;SDS011;6686;51.292;4.166;2022-07-18T09:52:05;2.83;;;2.37;;
13238;SDS011;6686;51.292;4.166;2022-07-18T09:54:50;5.13;;;2.57;;
13238;SDS011;6686;51.292;4.166;2022-07-18T09:57:36;3.80;;;2.30;;
13238;SDS011;6686;51.292;4.166;2022-07-18T10:00:22;4.10;;;2.17;;
13238;SDS011;6686;51.292;4.166;2022-07-18T10:03:08;4.12;;;2.50;;
13238;SDS011;6686;51.292;4.166;2022-07-18T10:05:55;4.00;;;2.50;;
13238;SDS011;6686;51.292;4.166;2022-07-18T10:08:40;3.25;;;2.10;;
13238;SDS011;6686;51.292;4.166;2022-07-18T10:11:26;6.45;;;2.05;;
13238;SDS011;6686;51.292;4.166;2022-07-18T10:14:12;5.85;;;2.40;;
13238;SDS011;6686;51.292;4.166;2022-07-18T10:16:59;4.32;;;2.25;;
13238;SDS011;6686;51.292;4.166;2022-07-18T10:19:45;3.07;;;2.20;;
13238;SDS011;6686;51.292;4.166;2022-07-18T10:22:37;4.03;;;2.40;;
13238;SDS011;6686;51.292;4.166;2022-07-18T10:25:22;2.75;;;2.40;;
13238;SDS011;6686;51.292;4.166;2022-07-18T10:28:09;4.45;;;2.00;;
13238;SDS011;6686;51.292;4.166;2022-07-18T10:30:55;4.60;;;2.20;;
13238;SDS011;6686;51.292;4.166;2022-07-18T10:33:45;3.03;;;1.87;;
13238;SDS011;6686;51.292;4.166;2022-07-18T10:39:38;2.08;;;1.87;;
13238;SDS011;6686;51.292;4.166;2022-07-18T10:42:23;4.57;;;1.90;;
13238;SDS011;6686;51.292;4.166;2022-07-18T10:45:42;2.58;;;2.25;;
13238;SDS011;6686;51.292;4.166;2022-07-18T10:51:23;3.65;;;2.15;;
13238;SDS011;6686;51.292;4.166;2022-07-18T10:54:07;2.47;;;2.10;;
13238;SDS011;6686;51.292;4.166;2022-07-18T10:59:58;4.15;;;2.00;;
13238;SDS011;6686;51.292;4.166;2022-07-18T11:02:31;2.53;;;1.92;;
13238;SDS011;6686;51.292;4.166;2022-07-18T11:11:03;3.85;;;2.00;;
13238;SDS011;6686;51.292;4.166;2022-07-18T11:13:48;4.87;;;2.17;;
13238;SDS011;6686;51.292;4.166;2022-07-18T11:16:34;5.30;;;2.30;;
13238;SDS011;6686;51.292;4.166;2022-07-18T11:19:20;4.15;;;2.10;;
13238;SDS011;6686;51.292;4.166;2022-07-18T11:22:09;3.35;;;1.90;;
13238;SDS011;6686;51.292;4.166;2022-07-18T11:24:56;4.35;;;2.40;;
13238;SDS011;6686;51.292;4.166;2022-07-18T11:27:42;3.65;;;2.30;;
13238;SDS011;6686;51.292;4.166;2022-07-18T11:30:28;4.03;;;2.40;;
13238;SDS011;6686;51.292;4.166;2022-07-18T11:33:25;2.65;;;1.98;;
13238;SDS011;6686;51.292;4.166;2022-07-18T11:36:06;4.53;;;2.42;;
13238;SDS011;6686;51.292;4.166;2022-07-18T11:38:56;3.85;;;2.03;;
13238;SDS011;6686;51.292;4.166;2022-07-18T11:41:41;6.15;;;2.25;;
13238;SDS011;6686;51.292;4.166;2022-07-18T11:44:27;3.60;;;2.05;;
13238;SDS011;6686;51.292;4.166;2022-07-18T11:47:13;4.87;;;2.15;;
13238;SDS011;6686;51.292;4.166;2022-07-18T11:49:59;3.33;;;2.00;;
13238;SDS011;6686;51.292;4.166;2022-07-18T11:52:45;2.95;;;2.00;;
13238;SDS011;6686;51.292;4.166;2022-07-18T11:55:37;4.37;;;2.20;;
13238;SDS011;6686;51.292;4.166;2022-07-18T11:58:22;3.28;;;2.05;;
13238;SDS011;6686;51.292;4.166;2022-07-18T12:01:09;3.72;;;2.10;;
13238;SDS011;6686;51.292;4.166;2022-07-18T12:03:57;2.58;;;2.00;;
13238;SDS011;6686;51.292;4.166;2022-07-18T12:06:44;4.50;;;2.12;;
13238;SDS011;6686;51.292;4.166;2022-07-18T12:09:29;4.80;;;2.10;;
13238;SDS011;6686;51.292;4.166;2022-07-18T12:12:16;2.85;;;2.20;;
13238;SDS011;6686;51.292;4.166;2022-07-18T12:15:01;3.05;;;2.00;;
13238;SDS011;6686;51.292;4.166;2022-07-18T12:17:48;3.55;;;2.08;;
13238;SDS011;6686;51.292;4.166;2022-07-18T12:20:33;4.00;;;2.28;;
13238;SDS011;6686;51.292;4.166;2022-07-18T12:23:27;4.95;;;2.12;;
13238;SDS011;6686;51.292;4.166;2022-07-18T12:26:05;3.28;;;2.83;;
13238;SDS011;6686;51.292;4.166;2022-07-18T12:29:02;5.82;;;2.30;;
13238;SDS011;6686;51.292;4.166;2022-07-18T12:34:36;3.78;;;2.12;;
13238;SDS011;6686;51.292;4.166;2022-07-18T12:37:23;3.03;;;2.20;;
13238;SDS011;6686;51.292;4.166;2022-07-18T12:40:09;3.05;;;2.10;;
13238;SDS011;6686;51.292;4.166;2022-07-18T12:43:01;2.87;;;2.20;;
13238;SDS011;6686;51.292;4.166;2022-07-18T12:45:46;3.40;;;2.20;;
13238;SDS011;6686;51.292;4.166;2022-07-18T12:48:32;4.00;;;2.10;;
13238;SDS011;6686;51.292;4.166;2022-07-18T12:51:28;2.30;;;1.85;;
13238;SDS011;6686;51.292;4.166;2022-07-18T12:54:04;5.03;;;1.98;;
13238;SDS011;6686;51.292;4.166;2022-07-18T12:56:50;3.75;;;2.12;;
13238;SDS011;6686;51.292;4.166;2022-07-18T12:59:37;2.65;;;2.10;;
13238;SDS011;6686;51.292;4.166;2022-07-18T13:02:23;2.40;;;1.90;;
13238;SDS011;6686;51.292;4.166;2022-07-18T13:05:14;3.08;;;2.03;;
13238;SDS011;6686;51.292;4.166;2022-07-18T13:08:05;4.28;;;2.35;;
13238;SDS011;6686;51.292;4.166;2022-07-18T13:10:54;2.15;;;1.92;;
13238;SDS011;6686;51.292;4.166;2022-07-18T13:13:36;3.08;;;1.92;;
13238;SDS011;6686;51.292;4.166;2022-07-18T13:16:22;2.50;;;2.28;;
13238;SDS011;6686;51.292;4.166;2022-07-18T13:19:08;2.85;;;2.25;;
13238;SDS011;6686;51.292;4.166;2022-07-18T13:21:54;3.58;;;2.25;;
13238;SDS011;6686;51.292;4.166;2022-07-18T13:24:40;4.65;;;2.05;;
13238;SDS011;6686;51.292;4.166;2022-07-18T13:27:26;2.40;;;2.00;;
13238;SDS011;6686;51.292;4.166;2022-07-18T13:30:13;2.58;;;2.15;;
13238;SDS011;6686;51.292;4.166;2022-07-18T13:32:58;2.95;;;2.12;;
13238;SDS011;6686;51.292;4.166;2022-07-18T13:35:44;2.80;;;2.10;;
13238;SDS011;6686;51.292;4.166;2022-07-18T13:38:29;5.80;;;3.10;;
13238;SDS011;6686;51.292;4.166;2022-07-18T13:41:16;5.37;;;2.10;;
13238;SDS011;6686;51.292;4.166;2022-07-18T13:44:01;2.80;;;2.08;;
13238;SDS011;6686;51.292;4.166;2022-07-18T13:46:47;2.57;;;2.10;;
13238;SDS011;6686;51.292;4.166;2022-07-18T13:49:33;2.50;;;2.10;;
13238;SDS011;6686;51.292;4.166;2022-07-18T13:52:19;3.80;;;2.40;;
13238;SDS011;6686;51.292;4.166;2022-07-18T13:55:06;2.40;;;2.03;;
13238;SDS011;6686;51.292;4.166;2022-07-18T13:57:52;5.00;;;2.05;;
13238;SDS011;6686;51.292;4.166;2022-07-18T14:00:38;4.00;;;1.80;;
13238;SDS011;6686;51.292;4.166;2022-07-18T14:03:24;4.62;;;2.00;;
13238;SDS011;6686;51.292;4.166;2022-07-18T14:06:09;2.45;;;2.25;;
13238;SDS011;6686;51.292;4.166;2022-07-18T14:08:55;3.35;;;2.30;;
13238;SDS011;6686;51.292;4.166;2022-07-18T14:11:41;3.58;;;2.12;;
13238;SDS011;6686;51.292;4.166;2022-07-18T14:14:27;5.70;;;2.08;;
13238;SDS011;6686;51.292;4.166;2022-07-18T14:17:12;3.20;;;2.45;;
13238;SDS011;6686;51.292;4.166;2022-07-18T14:19:59;4.32;;;2.50;;
13238;SDS011;6686;51.292;4.166;2022-07-18T14:22:45;4.97;;;2.40;;
13238;SDS011;6686;51.292;4.166;2022-07-18T14:25:30;3.25;;;2.08;;
13238;SDS011;6686;51.292;4.166;2022-07-18T14:28:16;2.62;;;1.75;;
13238;SDS011;6686;51.292;4.166;2022-07-18T14:31:02;3.03;;;2.20;;
13238;SDS011;6686;51.292;4.166;2022-07-18T14:33:49;4.60;;;2.10;;
13238;SDS011;6686;51.292;4.166;2022-07-18T14:36:34;3.45;;;1.92;;
13238;SDS011;6686;51.292;4.166;2022-07-18T14:39:20;4.03;;;2.20;;
13238;SDS011;6686;51.292;4.166;2022-07-18T14:42:06;2.90;;;1.90;;
13238;SDS011;6686;51.292;4.166;2022-07-18T14:44:52;3.10;;;2.47;;
13238;SDS011;6686;51.292;4.166;2022-07-18T14:47:38;4.35;;;2.40;;
13238;SDS011;6686;51.292;4.166;2022-07-18T14:50:24;5.68;;;1.98;;
13238;SDS011;6686;51.292;4.166;2022-07-18T14:53:16;2.67;;;2.33;;
13238;SDS011;6686;51.292;4.166;2022-07-18T14:56:05;2.45;;;2.10;;
13238;SDS011;6686;51.292;4.166;2022-07-18T14:58:48;3.50;;;2.20;;
13238;SDS011;6686;51.292;4.166;2022-07-18T15:01:34;2.40;;;1.77;;
13238;SDS011;6686;51.292;4.166;2022-07-18T15:04:19;3.45;;;2.35;;
13238;SDS011;6686;51.292;4.166;2022-07-18T15:07:06;2.05;;;1.85;;
13238;SDS011;6686;51.292;4.166;2022-07-18T15:09:52;3.65;;;2.10;;
13238;SDS011;6686;51.292;4.166;2022-07-18T15:12:38;3.42;;;2.00;;
13238;SDS011;6686;51.292;4.166;2022-07-18T15:15:24;2.65;;;1.90;;
13238;SDS011;6686;51.292;4.166;2022-07-18T15:18:10;2.08;;;1.83;;
13238;SDS011;6686;51.292;4.166;2022-07-18T15:20:55;4.33;;;2.03;;
13238;SDS011;6686;51.292;4.166;2022-07-18T15:23:41;2.78;;;2.00;;
13238;SDS011;6686;51.292;4.166;2022-07-18T15:26:27;2.47;;;1.85;;
13238;SDS011;6686;51.292;4.166;2022-07-18T15:29:13;3.53;;;2.10;;
13238;SDS011;6686;51.292;4.166;2022-07-18T15:31:59;3.42;;;2.37;;
13238;SDS011;6686;51.292;4.166;2022-07-18T15:34:48;2.33;;;1.90;;
13238;SDS011;6686;51.292;4.166;2022-07-18T15:37:33;2.92;;;2.28;;
13238;SDS011;6686;51.292;4.166;2022-07-18T15:40:19;2.70;;;2.15;;
13238;SDS011;6686;51.292;4.166;2022-07-18T15:43:05;3.30;;;1.98;;
13238;SDS011;6686;51.292;4.166;2022-07-18T15:45:51;5.50;;;2.35;;
13238;SDS011;6686;51.292;4.166;2022-07-18T15:48:37;2.90;;;2.00;;
13238;SDS011;6686;51.292;4.166;2022-07-18T15:51:23;2.53;;;2.10;;
13238;SDS011;6686;51.292;4.166;2022-07-18T15:54:09;2.37;;;2.10;;
13238;SDS011;6686;51.292;4.166;2022-07-18T15:56:55;2.53;;;2.05;;
13238;SDS011;6686;51.292;4.166;2022-07-18T15:59:40;4.10;;;2.20;;
13238;SDS011;6686;51.292;4.166;2022-07-18T16:02:30;4.60;;;2.62;;
13238;SDS011;6686;51.292;4.166;2022-07-18T16:05:16;10.02;;;3.87;;
13238;SDS011;6686;51.292;4.166;2022-07-18T16:08:02;4.32;;;2.22;;
13238;SDS011;6686;51.292;4.166;2022-07-18T16:10:47;2.60;;;2.10;;
13238;SDS011;6686;51.292;4.166;2022-07-18T16:13:33;2.20;;;2.00;;
13238;SDS011;6686;51.292;4.166;2022-07-18T16:16:19;2.17;;;1.90;;
13238;SDS011;6686;51.292;4.166;2022-07-18T16:19:05;2.42;;;2.22;;
13238;SDS011;6686;51.292;4.166;2022-07-18T16:21:53;4.75;;;1.83;;
13238;SDS011;6686;51.292;4.166;2022-07-18T16:24:40;8.77;;;2.78;;
13238;SDS011;6686;51.292;4.166;2022-07-18T16:27:28;4.03;;;2.55;;
13238;SDS011;6686;51.292;4.166;2022-07-18T16:30:14;2.60;;;2.30;;
13238;SDS011;6686;51.292;4.166;2022-07-18T16:33:00;2.75;;;2.08;;
13238;SDS011;6686;51.292;4.166;2022-07-18T16:35:46;2.90;;;2.12;;
13238;SDS011;6686;51.292;4.166;2022-07-18T16:38:32;3.47;;;2.20;;
13238;SDS011;6686;51.292;4.166;2022-07-18T16:41:18;3.10;;;2.05;;
13238;SDS011;6686;51.292;4.166;2022-07-18T16:44:04;2.42;;;2.22;;
13238;SDS011;6686;51.292;4.166;2022-07-18T16:47:01;4.35;;;2.10;;
13238;SDS011;6686;51.292;4.166;2022-07-18T16:49:47;2.00;;;1.75;;
13238;SDS011;6686;51.292;4.166;2022-07-18T16:52:51;3.25;;;2.00;;
13238;SDS011;6686;51.292;4.166;2022-07-18T16:55:47;4.55;;;2.12;;
13238;SDS011;6686;51.292;4.166;2022-07-18T16:58:43;2.97;;;2.20;;
13238;SDS011;6686;51.292;4.166;2022-07-18T17:01:31;5.25;;;1.77;;
13238;SDS011;6686;51.292;4.166;2022-07-18T17:04:23;2.03;;;1.85;;
13238;SDS011;6686;51.292;4.166;2022-07-18T17:10:28;4.50;;;2.00;;
13238;SDS011;6686;51.292;4.166;2022-07-18T17:13:36;2.28;;;2.08;;
13238;SDS011;6686;51.292;4.166;2022-07-18T17:16:28;4.35;;;2.28;;
13238;SDS011;6686;51.292;4.166;2022-07-18T17:19:12;2.90;;;2.03;;
13238;SDS011;6686;51.292;4.166;2022-07-18T17:21:59;3.80;;;2.37;;
13238;SDS011;6686;51.292;4.166;2022-07-18T17:24:52;2.40;;;2.12;;